Glenshaw, PA (15116)

7:08 PM EST en Diciembre 07, 2016 (GMT -0500)
Vilsack Road WX | | Change Station

Alt 1079 ft 40.53 °N, 79.99 °W | Updated 8 seconds ago

Overcast
Nublado
36.5 ° F
Sensación térmica 36 ° F
N
1.6
Viento Variable Viento desde Norte
Gusts 1.6 mph

Hoy
Alta -- | Baja -- ° F
--% Posibilidad de precipitaciones
Ayer
Alta -- | Baja -- ° F
Precip. -- pul
Presión 30.10 pul
Visibilidad 10.0 Millas
Nubes Nublado 10000 ft
Vientos helados 36 ° F
Punto de rocío 21 ° F
Humedad 54%
Precipitaciones 0.00 pul
Espesor de la nieve No disponible.
7:30 AM 4:52 PM
Cuarto creciente, 57% visible
METAR KAGC 072353Z 27006KT 10SM OVC100 03/M07 A3005 RMK AO2 SLP192 T00281067 10044 20022 50002
Presión 30.10 pul
Visibilidad 10.0 Millas
Nubes Nublado 10000 ft
Vientos helados 36 ° F
Punto de rocío 21 ° F
Humedad 54%
Precipitaciones 0.00 pul
Espesor de la nieve No disponible.
7:30 AM 4:52 PM
Cuarto creciente, 57% visible
METAR KAGC 072353Z 27006KT 10SM OVC100 03/M07 A3005 RMK AO2 SLP192 T00281067 10044 20022 50002

10-Day Weather Forecast

Almanac

Astronomía

Dec. 07, 2016 Salida Puesta
Hora real
Crepúsculo civil
Crepúsculo náutico
Crepúsculo astronómico
Luna
Horas de luz
Horas de luz
Tomorrow will be .
, % of the Moon is Illuminated

Extremos de hoy

Máximos del estado Bajos del estado

Community

WunderPhotos

Upload Photos

1,956,221 ¡fotos cargadas!

WunderBlog® & News

Nearby

Calidad del aire

  Calidad del aire Índice AQ Contaminante
Not available.

Grosos de nieve

Estación Profundido Altura

Actividad de terremotos

Ciudad Distance Mag. Tiempo y dato
Magnitud mínima muestra es 2,5.

Temperaturas de aguas costeras

Lugar Temperatura

Stations

Estaciones meteorológicas cercanas

Ubicación de la estación Temp. Vientos helados Punto de rocío Humedad Viento Precip. Alt Actualizado Tipo
                   

Watches & Warnings

There are currently no watches in effect.